sensor_id;sensor_type;location;lat;lon;timestamp;P1;durP1;ratioP1;P2;durP2;ratioP2
28551;SDS011;15752;49.560;8.708;2023-01-29T00:00:10;8.23;;;4.87;;
28551;SDS011;15752;49.560;8.708;2023-01-29T00:02:41;7.20;;;4.83;;
28551;SDS011;15752;49.560;8.708;2023-01-29T00:05:09;7.00;;;5.03;;
28551;SDS011;15752;49.560;8.708;2023-01-29T00:07:54;4.80;;;4.30;;
28551;SDS011;15752;49.560;8.708;2023-01-29T00:10:23;6.50;;;4.30;;
28551;SDS011;15752;49.560;8.708;2023-01-29T00:12:52;6.37;;;4.83;;
28551;SDS011;15752;49.560;8.708;2023-01-29T00:15:21;6.50;;;4.67;;
28551;SDS011;15752;49.560;8.708;2023-01-29T00:17:50;4.27;;;3.87;;
28551;SDS011;15752;49.560;8.708;2023-01-29T00:20:18;4.20;;;3.70;;
28551;SDS011;15752;49.560;8.708;2023-01-29T00:22:46;4.53;;;4.13;;
28551;SDS011;15752;49.560;8.708;2023-01-29T00:25:16;4.53;;;4.10;;
28551;SDS011;15752;49.560;8.708;2023-01-29T00:27:44;5.03;;;4.40;;
28551;SDS011;15752;49.560;8.708;2023-01-29T00:30:13;4.50;;;4.10;;
28551;SDS011;15752;49.560;8.708;2023-01-29T00:32:45;4.80;;;4.33;;
28551;SDS011;15752;49.560;8.708;2023-01-29T00:35:14;6.90;;;4.80;;
28551;SDS011;15752;49.560;8.708;2023-01-29T00:37:42;5.70;;;4.30;;
28551;SDS011;15752;49.560;8.708;2023-01-29T00:40:11;6.23;;;4.47;;
28551;SDS011;15752;49.560;8.708;2023-01-29T00:42:44;5.03;;;4.53;;
28551;SDS011;15752;49.560;8.708;2023-01-29T00:45:30;3.93;;;3.47;;
28551;SDS011;15752;49.560;8.708;2023-01-29T00:47:59;5.13;;;4.30;;
28551;SDS011;15752;49.560;8.708;2023-01-29T00:50:27;4.93;;;4.20;;
28551;SDS011;15752;49.560;8.708;2023-01-29T00:52:56;5.63;;;5.03;;
28551;SDS011;15752;49.560;8.708;2023-01-29T00:55:24;5.90;;;4.67;;
28551;SDS011;15752;49.560;8.708;2023-01-29T00:57:54;6.07;;;4.90;;
28551;SDS011;15752;49.560;8.708;2023-01-29T01:00:23;5.03;;;4.53;;
28551;SDS011;15752;49.560;8.708;2023-01-29T01:02:51;5.80;;;4.60;;
28551;SDS011;15752;49.560;8.708;2023-01-29T01:05:31;6.33;;;4.70;;
28551;SDS011;15752;49.560;8.708;2023-01-29T01:07:59;5.57;;;4.57;;
28551;SDS011;15752;49.560;8.708;2023-01-29T01:10:28;6.00;;;4.20;;
28551;SDS011;15752;49.560;8.708;2023-01-29T01:13:00;4.87;;;4.30;;
28551;SDS011;15752;49.560;8.708;2023-01-29T01:15:31;6.13;;;4.47;;
28551;SDS011;15752;49.560;8.708;2023-01-29T01:18:02;5.67;;;4.27;;
28551;SDS011;15752;49.560;8.708;2023-01-29T01:20:32;4.47;;;3.83;;
28551;SDS011;15752;49.560;8.708;2023-01-29T01:23:02;4.87;;;4.13;;
28551;SDS011;15752;49.560;8.708;2023-01-29T01:25:31;4.77;;;3.83;;
28551;SDS011;15752;49.560;8.708;2023-01-29T01:28:01;5.93;;;4.70;;
28551;SDS011;15752;49.560;8.708;2023-01-29T01:30:29;5.33;;;4.20;;
28551;SDS011;15752;49.560;8.708;2023-01-29T01:32:59;4.73;;;4.33;;
28551;SDS011;15752;49.560;8.708;2023-01-29T01:35:27;5.13;;;4.50;;
28551;SDS011;15752;49.560;8.708;2023-01-29T01:37:55;5.30;;;4.37;;
28551;SDS011;15752;49.560;8.708;2023-01-29T01:40:24;4.50;;;3.97;;
28551;SDS011;15752;49.560;8.708;2023-01-29T01:42:53;4.83;;;4.17;;
28551;SDS011;15752;49.560;8.708;2023-01-29T01:45:26;4.10;;;3.70;;
28551;SDS011;15752;49.560;8.708;2023-01-29T01:47:58;5.57;;;4.47;;
28551;SDS011;15752;49.560;8.708;2023-01-29T01:50:32;5.37;;;4.73;;
28551;SDS011;15752;49.560;8.708;2023-01-29T01:53:04;5.37;;;4.67;;
28551;SDS011;15752;49.560;8.708;2023-01-29T01:55:36;6.33;;;5.10;;
28551;SDS011;15752;49.560;8.708;2023-01-29T01:58:12;5.77;;;5.00;;
28551;SDS011;15752;49.560;8.708;2023-01-29T02:00:46;5.80;;;4.30;;
28551;SDS011;15752;49.560;8.708;2023-01-29T02:03:15;4.87;;;4.17;;
28551;SDS011;15752;49.560;8.708;2023-01-29T02:06:03;6.17;;;4.77;;
28551;SDS011;15752;49.560;8.708;2023-01-29T02:08:50;5.03;;;4.40;;
28551;SDS011;15752;49.560;8.708;2023-01-29T02:11:42;5.20;;;4.50;;
28551;SDS011;15752;49.560;8.708;2023-01-29T02:14:11;5.77;;;4.97;;
28551;SDS011;15752;49.560;8.708;2023-01-29T02:16:40;5.20;;;4.70;;
28551;SDS011;15752;49.560;8.708;2023-01-29T02:19:09;5.33;;;4.73;;
28551;SDS011;15752;49.560;8.708;2023-01-29T02:21:49;5.93;;;5.03;;
28551;SDS011;15752;49.560;8.708;2023-01-29T02:25:00;4.60;;;4.17;;
28551;SDS011;15752;49.560;8.708;2023-01-29T02:31:05;6.17;;;5.03;;
28551;SDS011;15752;49.560;8.708;2023-01-29T02:33:42;5.73;;;5.13;;
28551;SDS011;15752;49.560;8.708;2023-01-29T02:36:20;6.60;;;4.63;;
28551;SDS011;15752;49.560;8.708;2023-01-29T02:38:59;5.90;;;5.10;;
28551;SDS011;15752;49.560;8.708;2023-01-29T02:41:38;7.07;;;5.20;;
28551;SDS011;15752;49.560;8.708;2023-01-29T02:44:14;6.40;;;4.53;;
28551;SDS011;15752;49.560;8.708;2023-01-29T02:46:50;5.37;;;4.87;;
28551;SDS011;15752;49.560;8.708;2023-01-29T02:49:26;5.10;;;4.20;;
28551;SDS011;15752;49.560;8.708;2023-01-29T02:52:01;6.07;;;5.30;;
28551;SDS011;15752;49.560;8.708;2023-01-29T02:54:38;5.53;;;5.00;;
28551;SDS011;15752;49.560;8.708;2023-01-29T02:57:15;7.03;;;5.23;;
28551;SDS011;15752;49.560;8.708;2023-01-29T02:59:52;5.27;;;4.37;;
28551;SDS011;15752;49.560;8.708;2023-01-29T03:02:24;5.87;;;4.43;;
28551;SDS011;15752;49.560;8.708;2023-01-29T03:05:00;5.87;;;4.47;;
28551;SDS011;15752;49.560;8.708;2023-01-29T03:07:36;6.07;;;4.93;;
28551;SDS011;15752;49.560;8.708;2023-01-29T03:10:17;5.33;;;4.70;;
28551;SDS011;15752;49.560;8.708;2023-01-29T03:12:50;5.03;;;4.10;;
28551;SDS011;15752;49.560;8.708;2023-01-29T03:15:24;4.70;;;4.17;;
28551;SDS011;15752;49.560;8.708;2023-01-29T03:18:16;5.10;;;4.47;;
28551;SDS011;15752;49.560;8.708;2023-01-29T03:20:49;5.80;;;4.20;;
28551;SDS011;15752;49.560;8.708;2023-01-29T03:23:25;6.53;;;4.17;;
28551;SDS011;15752;49.560;8.708;2023-01-29T03:26:14;4.70;;;4.20;;
28551;SDS011;15752;49.560;8.708;2023-01-29T03:29:02;4.60;;;3.97;;
28551;SDS011;15752;49.560;8.708;2023-01-29T03:31:52;4.87;;;3.57;;
28551;SDS011;15752;49.560;8.708;2023-01-29T03:34:34;4.87;;;4.23;;
28551;SDS011;15752;49.560;8.708;2023-01-29T03:37:10;5.23;;;4.23;;
28551;SDS011;15752;49.560;8.708;2023-01-29T03:39:45;5.67;;;4.47;;
28551;SDS011;15752;49.560;8.708;2023-01-29T03:42:16;6.50;;;5.00;;
28551;SDS011;15752;49.560;8.708;2023-01-29T03:44:53;4.73;;;4.17;;
28551;SDS011;15752;49.560;8.708;2023-01-29T03:47:37;4.80;;;4.40;;
28551;SDS011;15752;49.560;8.708;2023-01-29T03:50:16;4.90;;;4.43;;
28551;SDS011;15752;49.560;8.708;2023-01-29T03:53:01;5.13;;;4.63;;
28551;SDS011;15752;49.560;8.708;2023-01-29T03:55:37;5.43;;;4.10;;
28551;SDS011;15752;49.560;8.708;2023-01-29T03:58:17;5.40;;;4.43;;
28551;SDS011;15752;49.560;8.708;2023-01-29T04:00:52;5.67;;;4.30;;
28551;SDS011;15752;49.560;8.708;2023-01-29T04:03:28;5.63;;;4.63;;
28551;SDS011;15752;49.560;8.708;2023-01-29T04:06:03;5.07;;;4.20;;
28551;SDS011;15752;49.560;8.708;2023-01-29T04:08:45;5.40;;;4.40;;
28551;SDS011;15752;49.560;8.708;2023-01-29T04:11:19;6.30;;;4.57;;
28551;SDS011;15752;49.560;8.708;2023-01-29T04:13:50;5.20;;;4.40;;
28551;SDS011;15752;49.560;8.708;2023-01-29T04:16:19;5.20;;;4.23;;
28551;SDS011;15752;49.560;8.708;2023-01-29T04:19:08;5.00;;;4.37;;
28551;SDS011;15752;49.560;8.708;2023-01-29T04:21:40;5.70;;;4.80;;
28551;SDS011;15752;49.560;8.708;2023-01-29T04:24:09;5.40;;;4.53;;
28551;SDS011;15752;49.560;8.708;2023-01-29T04:26:44;6.07;;;5.40;;
28551;SDS011;15752;49.560;8.708;2023-01-29T04:29:28;5.27;;;4.53;;
28551;SDS011;15752;49.560;8.708;2023-01-29T04:32:14;4.97;;;4.53;;
28551;SDS011;15752;49.560;8.708;2023-01-29T04:34:55;5.80;;;5.20;;
28551;SDS011;15752;49.560;8.708;2023-01-29T04:37:32;5.60;;;5.00;;
28551;SDS011;15752;49.560;8.708;2023-01-29T04:40:13;6.43;;;5.10;;
28551;SDS011;15752;49.560;8.708;2023-01-29T04:42:48;6.13;;;5.47;;
28551;SDS011;15752;49.560;8.708;2023-01-29T04:45:27;6.37;;;5.47;;
28551;SDS011;15752;49.560;8.708;2023-01-29T04:48:07;6.93;;;5.20;;
28551;SDS011;15752;49.560;8.708;2023-01-29T04:50:49;5.77;;;5.13;;
28551;SDS011;15752;49.560;8.708;2023-01-29T04:53:27;7.03;;;5.63;;
28551;SDS011;15752;49.560;8.708;2023-01-29T04:56:05;6.27;;;5.40;;
28551;SDS011;15752;49.560;8.708;2023-01-29T04:58:38;7.97;;;5.77;;
28551;SDS011;15752;49.560;8.708;2023-01-29T05:01:12;6.77;;;6.03;;
28551;SDS011;15752;49.560;8.708;2023-01-29T05:03:44;7.23;;;5.87;;
28551;SDS011;15752;49.560;8.708;2023-01-29T05:06:18;7.83;;;6.20;;
28551;SDS011;15752;49.560;8.708;2023-01-29T05:08:48;5.70;;;5.07;;
28551;SDS011;15752;49.560;8.708;2023-01-29T05:11:18;5.97;;;5.37;;
28551;SDS011;15752;49.560;8.708;2023-01-29T05:13:47;6.37;;;5.03;;
28551;SDS011;15752;49.560;8.708;2023-01-29T05:16:17;5.65;;;4.65;;
28551;SDS011;15752;49.560;8.708;2023-01-29T05:18:49;6.13;;;4.77;;
28551;SDS011;15752;49.560;8.708;2023-01-29T05:21:20;7.47;;;5.13;;
28551;SDS011;15752;49.560;8.708;2023-01-29T05:24:04;6.97;;;4.87;;
28551;SDS011;15752;49.560;8.708;2023-01-29T05:26:44;6.17;;;5.50;;
28551;SDS011;15752;49.560;8.708;2023-01-29T05:29:32;5.37;;;4.57;;
28551;SDS011;15752;49.560;8.708;2023-01-29T05:32:01;5.53;;;4.27;;
28551;SDS011;15752;49.560;8.708;2023-01-29T05:34:30;7.37;;;5.60;;
28551;SDS011;15752;49.560;8.708;2023-01-29T05:37:01;5.67;;;4.87;;
28551;SDS011;15752;49.560;8.708;2023-01-29T05:39:29;5.20;;;4.63;;
28551;SDS011;15752;49.560;8.708;2023-01-29T05:41:58;5.17;;;4.67;;
28551;SDS011;15752;49.560;8.708;2023-01-29T05:44:26;5.80;;;4.50;;
28551;SDS011;15752;49.560;8.708;2023-01-29T05:46:55;5.97;;;4.87;;
28551;SDS011;15752;49.560;8.708;2023-01-29T05:49:23;5.47;;;4.17;;
28551;SDS011;15752;49.560;8.708;2023-01-29T05:51:51;7.20;;;5.33;;
28551;SDS011;15752;49.560;8.708;2023-01-29T05:54:21;6.13;;;5.20;;
28551;SDS011;15752;49.560;8.708;2023-01-29T05:56:50;7.23;;;5.37;;
28551;SDS011;15752;49.560;8.708;2023-01-29T05:59:18;7.40;;;5.23;;
28551;SDS011;15752;49.560;8.708;2023-01-29T06:01:47;6.50;;;5.67;;
28551;SDS011;15752;49.560;8.708;2023-01-29T06:04:15;5.17;;;4.23;;
28551;SDS011;15752;49.560;8.708;2023-01-29T06:06:44;5.90;;;5.00;;
28551;SDS011;15752;49.560;8.708;2023-01-29T06:09:15;5.70;;;5.10;;
28551;SDS011;15752;49.560;8.708;2023-01-29T06:11:44;5.50;;;4.93;;
28551;SDS011;15752;49.560;8.708;2023-01-29T06:14:13;7.43;;;5.17;;
28551;SDS011;15752;49.560;8.708;2023-01-29T06:16:41;5.17;;;4.67;;
28551;SDS011;15752;49.560;8.708;2023-01-29T06:19:10;6.00;;;4.53;;
28551;SDS011;15752;49.560;8.708;2023-01-29T06:21:38;6.60;;;5.30;;
28551;SDS011;15752;49.560;8.708;2023-01-29T06:24:07;6.43;;;4.80;;
28551;SDS011;15752;49.560;8.708;2023-01-29T06:26:36;6.27;;;5.00;;
28551;SDS011;15752;49.560;8.708;2023-01-29T06:29:06;5.70;;;5.10;;
28551;SDS011;15752;49.560;8.708;2023-01-29T06:31:34;7.10;;;5.10;;
28551;SDS011;15752;49.560;8.708;2023-01-29T06:34:05;5.23;;;4.23;;
28551;SDS011;15752;49.560;8.708;2023-01-29T06:36:34;5.30;;;4.43;;
28551;SDS011;15752;49.560;8.708;2023-01-29T06:39:02;5.03;;;4.57;;
28551;SDS011;15752;49.560;8.708;2023-01-29T06:41:31;5.90;;;5.10;;
28551;SDS011;15752;49.560;8.708;2023-01-29T06:44:00;8.50;;;5.23;;
28551;SDS011;15752;49.560;8.708;2023-01-29T06:46:30;6.40;;;5.20;;
28551;SDS011;15752;49.560;8.708;2023-01-29T06:48:59;7.73;;;5.40;;
28551;SDS011;15752;49.560;8.708;2023-01-29T06:51:28;5.97;;;5.20;;
28551;SDS011;15752;49.560;8.708;2023-01-29T06:53:56;6.73;;;5.73;;
28551;SDS011;15752;49.560;8.708;2023-01-29T06:56:25;6.10;;;5.17;;
28551;SDS011;15752;49.560;8.708;2023-01-29T06:58:54;6.17;;;4.83;;
28551;SDS011;15752;49.560;8.708;2023-01-29T07:01:22;6.50;;;5.07;;
28551;SDS011;15752;49.560;8.708;2023-01-29T07:04:03;5.87;;;5.10;;
28551;SDS011;15752;49.560;8.708;2023-01-29T07:06:32;7.37;;;5.43;;
28551;SDS011;15752;49.560;8.708;2023-01-29T07:09:01;6.10;;;5.17;;
28551;SDS011;15752;49.560;8.708;2023-01-29T07:11:30;6.43;;;5.30;;
28551;SDS011;15752;49.560;8.708;2023-01-29T07:14:00;7.30;;;5.77;;
28551;SDS011;15752;49.560;8.708;2023-01-29T07:16:29;9.73;;;7.97;;
28551;SDS011;15752;49.560;8.708;2023-01-29T07:18:57;9.10;;;7.30;;
28551;SDS011;15752;49.560;8.708;2023-01-29T07:21:27;10.60;;;9.07;;
28551;SDS011;15752;49.560;8.708;2023-01-29T07:23:55;9.50;;;7.80;;
28551;SDS011;15752;49.560;8.708;2023-01-29T07:26:24;9.10;;;7.53;;
28551;SDS011;15752;49.560;8.708;2023-01-29T07:28:52;9.10;;;7.23;;
28551;SDS011;15752;49.560;8.708;2023-01-29T07:31:21;8.60;;;7.43;;
28551;SDS011;15752;49.560;8.708;2023-01-29T07:33:50;8.53;;;6.97;;
28551;SDS011;15752;49.560;8.708;2023-01-29T07:36:18;7.33;;;6.43;;
28551;SDS011;15752;49.560;8.708;2023-01-29T07:38:49;9.97;;;7.70;;
28551;SDS011;15752;49.560;8.708;2023-01-29T07:41:17;9.47;;;6.50;;
28551;SDS011;15752;49.560;8.708;2023-01-29T07:43:46;9.40;;;6.73;;
28551;SDS011;15752;49.560;8.708;2023-01-29T07:46:15;10.27;;;7.40;;
28551;SDS011;15752;49.560;8.708;2023-01-29T07:48:43;9.20;;;6.97;;
28551;SDS011;15752;49.560;8.708;2023-01-29T07:51:12;11.00;;;7.97;;
28551;SDS011;15752;49.560;8.708;2023-01-29T07:53:42;9.00;;;7.03;;
28551;SDS011;15752;49.560;8.708;2023-01-29T07:56:12;10.03;;;7.73;;
28551;SDS011;15752;49.560;8.708;2023-01-29T07:58:40;11.67;;;7.87;;
28551;SDS011;15752;49.560;8.708;2023-01-29T08:01:09;8.77;;;7.30;;
28551;SDS011;15752;49.560;8.708;2023-01-29T08:03:38;11.40;;;8.50;;
28551;SDS011;15752;49.560;8.708;2023-01-29T08:06:06;10.60;;;7.80;;
28551;SDS011;15752;49.560;8.708;2023-01-29T08:08:35;16.37;;;9.13;;
28551;SDS011;15752;49.560;8.708;2023-01-29T08:11:03;11.40;;;8.40;;
28551;SDS011;15752;49.560;8.708;2023-01-29T08:13:33;18.43;;;11.87;;
28551;SDS011;15752;49.560;8.708;2023-01-29T08:16:02;16.63;;;10.83;;
28551;SDS011;15752;49.560;8.708;2023-01-29T08:18:32;16.27;;;10.47;;
28551;SDS011;15752;49.560;8.708;2023-01-29T08:21:00;16.33;;;11.30;;
28551;SDS011;15752;49.560;8.708;2023-01-29T08:23:29;18.83;;;11.67;;
28551;SDS011;15752;49.560;8.708;2023-01-29T08:25:57;21.63;;;14.23;;
28551;SDS011;15752;49.560;8.708;2023-01-29T08:28:26;19.93;;;12.87;;
28551;SDS011;15752;49.560;8.708;2023-01-29T08:30:56;17.20;;;11.60;;
28551;SDS011;15752;49.560;8.708;2023-01-29T08:33:24;12.83;;;9.90;;
28551;SDS011;15752;49.560;8.708;2023-01-29T08:36:05;12.87;;;8.93;;
28551;SDS011;15752;49.560;8.708;2023-01-29T08:38:35;13.27;;;8.90;;
28551;SDS011;15752;49.560;8.708;2023-01-29T08:41:03;12.00;;;8.43;;
28551;SDS011;15752;49.560;8.708;2023-01-29T08:43:33;10.60;;;8.27;;
28551;SDS011;15752;49.560;8.708;2023-01-29T08:46:04;8.57;;;7.47;;
28551;SDS011;15752;49.560;8.708;2023-01-29T08:48:33;9.73;;;7.50;;
28551;SDS011;15752;49.560;8.708;2023-01-29T08:51:02;10.53;;;8.53;;
28551;SDS011;15752;49.560;8.708;2023-01-29T08:53:31;13.33;;;8.20;;
28551;SDS011;15752;49.560;8.708;2023-01-29T08:55:59;10.70;;;8.10;;
28551;SDS011;15752;49.560;8.708;2023-01-29T08:58:28;9.97;;;8.27;;
28551;SDS011;15752;49.560;8.708;2023-01-29T09:01:05;12.73;;;8.77;;
28551;SDS011;15752;49.560;8.708;2023-01-29T09:03:34;12.17;;;8.17;;
28551;SDS011;15752;49.560;8.708;2023-01-29T09:06:07;10.43;;;8.20;;
28551;SDS011;15752;49.560;8.708;2023-01-29T09:08:39;9.73;;;7.67;;
28551;SDS011;15752;49.560;8.708;2023-01-29T09:11:08;9.63;;;6.73;;
28551;SDS011;15752;49.560;8.708;2023-01-29T09:13:37;8.87;;;7.27;;
28551;SDS011;15752;49.560;8.708;2023-01-29T09:16:07;7.47;;;6.37;;
28551;SDS011;15752;49.560;8.708;2023-01-29T09:18:36;6.87;;;5.83;;
28551;SDS011;15752;49.560;8.708;2023-01-29T09:21:05;9.57;;;6.67;;
28551;SDS011;15752;49.560;8.708;2023-01-29T09:23:33;11.67;;;8.13;;
28551;SDS011;15752;49.560;8.708;2023-01-29T09:26:02;11.37;;;7.50;;
28551;SDS011;15752;49.560;8.708;2023-01-29T09:28:31;8.17;;;7.07;;
28551;SDS011;15752;49.560;8.708;2023-01-29T09:31:00;7.93;;;6.57;;
28551;SDS011;15752;49.560;8.708;2023-01-29T09:33:30;6.40;;;5.67;;
28551;SDS011;15752;49.560;8.708;2023-01-29T09:36:00;6.57;;;5.60;;
28551;SDS011;15752;49.560;8.708;2023-01-29T09:38:29;6.93;;;5.10;;
28551;SDS011;15752;49.560;8.708;2023-01-29T09:41:00;5.93;;;4.30;;
28551;SDS011;15752;49.560;8.708;2023-01-29T09:43:41;5.30;;;3.93;;
28551;SDS011;15752;49.560;8.708;2023-01-29T09:46:15;7.93;;;6.07;;
28551;SDS011;15752;49.560;8.708;2023-01-29T09:48:50;7.60;;;5.80;;
28551;SDS011;15752;49.560;8.708;2023-01-29T09:51:26;6.20;;;5.10;;
28551;SDS011;15752;49.560;8.708;2023-01-29T09:54:04;7.60;;;5.73;;
28551;SDS011;15752;49.560;8.708;2023-01-29T09:56:43;6.37;;;5.10;;
28551;SDS011;15752;49.560;8.708;2023-01-29T09:59:13;8.43;;;5.63;;
28551;SDS011;15752;49.560;8.708;2023-01-29T10:01:52;9.03;;;6.47;;
28551;SDS011;15752;49.560;8.708;2023-01-29T10:07:43;16.43;;;8.43;;
28551;SDS011;15752;49.560;8.708;2023-01-29T10:10:54;11.03;;;7.47;;
28551;SDS011;15752;49.560;8.708;2023-01-29T10:13:36;10.90;;;6.83;;
28551;SDS011;15752;49.560;8.708;2023-01-29T10:16:21;12.47;;;7.37;;
28551;SDS011;15752;49.560;8.708;2023-01-29T10:19:03;11.03;;;6.83;;
28551;SDS011;15752;49.560;8.708;2023-01-29T10:25:16;8.70;;;6.47;;
28551;SDS011;15752;49.560;8.708;2023-01-29T10:27:47;8.93;;;5.70;;
28551;SDS011;15752;49.560;8.708;2023-01-29T10:30:20;9.77;;;5.90;;
28551;SDS011;15752;49.560;8.708;2023-01-29T10:32:57;8.20;;;6.03;;
28551;SDS011;15752;49.560;8.708;2023-01-29T10:35:31;9.77;;;6.17;;
28551;SDS011;15752;49.560;8.708;2023-01-29T10:38:11;8.47;;;6.30;;
28551;SDS011;15752;49.560;8.708;2023-01-29T10:40:54;7.20;;;5.93;;
28551;SDS011;15752;49.560;8.708;2023-01-29T10:43:35;8.07;;;6.30;;
28551;SDS011;15752;49.560;8.708;2023-01-29T10:46:15;8.93;;;6.17;;
28551;SDS011;15752;49.560;8.708;2023-01-29T10:48:59;8.27;;;6.43;;
28551;SDS011;15752;49.560;8.708;2023-01-29T10:51:45;9.27;;;6.83;;
28551;SDS011;15752;49.560;8.708;2023-01-29T10:54:35;7.67;;;6.77;;
28551;SDS011;15752;49.560;8.708;2023-01-29T10:57:29;7.33;;;5.60;;
28551;SDS011;15752;49.560;8.708;2023-01-29T11:00:16;21.33;;;11.03;;
28551;SDS011;15752;49.560;8.708;2023-01-29T11:02:49;17.67;;;10.27;;
28551;SDS011;15752;49.560;8.708;2023-01-29T11:05:20;17.93;;;11.03;;
28551;SDS011;15752;49.560;8.708;2023-01-29T11:08:00;14.80;;;9.17;;
28551;SDS011;15752;49.560;8.708;2023-01-29T11:10:35;13.63;;;9.30;;
28551;SDS011;15752;49.560;8.708;2023-01-29T11:13:09;11.97;;;8.17;;
28551;SDS011;15752;49.560;8.708;2023-01-29T11:15:41;11.77;;;8.50;;
28551;SDS011;15752;49.560;8.708;2023-01-29T14:14:01;17.83;;;10.87;;
28551;SDS011;15752;49.560;8.708;2023-01-29T14:17:09;13.80;;;10.00;;
28551;SDS011;15752;49.560;8.708;2023-01-29T14:19:45;16.53;;;11.70;;
28551;SDS011;15752;49.560;8.708;2023-01-29T14:22:17;15.17;;;10.80;;
28551;SDS011;15752;49.560;8.708;2023-01-29T14:24:52;15.20;;;11.07;;
28551;SDS011;15752;49.560;8.708;2023-01-29T14:27:23;16.53;;;11.10;;
28551;SDS011;15752;49.560;8.708;2023-01-29T14:29:57;17.27;;;10.90;;
28551;SDS011;15752;49.560;8.708;2023-01-29T14:32:29;18.07;;;11.93;;
28551;SDS011;15752;49.560;8.708;2023-01-29T14:34:58;14.83;;;10.40;;
28551;SDS011;15752;49.560;8.708;2023-01-29T14:37:30;19.17;;;12.30;;
28551;SDS011;15752;49.560;8.708;2023-01-29T14:40:12;19.13;;;10.70;;
28551;SDS011;15752;49.560;8.708;2023-01-29T14:42:52;15.63;;;10.03;;
28551;SDS011;15752;49.560;8.708;2023-01-29T14:45:26;14.57;;;9.40;;
28551;SDS011;15752;49.560;8.708;2023-01-29T14:48:03;14.90;;;9.43;;
28551;SDS011;15752;49.560;8.708;2023-01-29T14:51:06;14.60;;;9.53;;
28551;SDS011;15752;49.560;8.708;2023-01-29T14:53:55;14.97;;;10.03;;
28551;SDS011;15752;49.560;8.708;2023-01-29T14:56:31;12.40;;;9.57;;
28551;SDS011;15752;49.560;8.708;2023-01-29T14:59:04;15.57;;;9.70;;
28551;SDS011;15752;49.560;8.708;2023-01-29T15:01:45;16.30;;;10.73;;
28551;SDS011;15752;49.560;8.708;2023-01-29T15:04:21;16.17;;;11.00;;
28551;SDS011;15752;49.560;8.708;2023-01-29T15:06:54;15.40;;;10.93;;
28551;SDS011;15752;49.560;8.708;2023-01-29T15:09:34;14.60;;;10.43;;
28551;SDS011;15752;49.560;8.708;2023-01-29T15:12:12;14.57;;;10.07;;
28551;SDS011;15752;49.560;8.708;2023-01-29T15:14:55;12.90;;;9.70;;
28551;SDS011;15752;49.560;8.708;2023-01-29T15:17:35;13.67;;;9.53;;
28551;SDS011;15752;49.560;8.708;2023-01-29T15:20:29;14.57;;;9.43;;
28551;SDS011;15752;49.560;8.708;2023-01-29T15:22:59;15.57;;;9.77;;
28551;SDS011;15752;49.560;8.708;2023-01-29T15:25:30;56.93;;;23.63;;
28551;SDS011;15752;49.560;8.708;2023-01-29T15:28:02;52.40;;;22.50;;
28551;SDS011;15752;49.560;8.708;2023-01-29T15:30:35;37.40;;;16.47;;
28551;SDS011;15752;49.560;8.708;2023-01-29T15:33:08;29.00;;;14.30;;
28551;SDS011;15752;49.560;8.708;2023-01-29T15:35:41;19.37;;;11.67;;
28551;SDS011;15752;49.560;8.708;2023-01-29T15:38:16;24.40;;;12.63;;
28551;SDS011;15752;49.560;8.708;2023-01-29T15:40:53;19.17;;;12.03;;
28551;SDS011;15752;49.560;8.708;2023-01-29T15:43:23;16.77;;;10.23;;
28551;SDS011;15752;49.560;8.708;2023-01-29T15:46:01;15.03;;;10.73;;
28551;SDS011;15752;49.560;8.708;2023-01-29T15:48:37;15.20;;;10.23;;
28551;SDS011;15752;49.560;8.708;2023-01-29T15:51:12;14.13;;;10.17;;
28551;SDS011;15752;49.560;8.708;2023-01-29T15:53:45;12.30;;;9.13;;
28551;SDS011;15752;49.560;8.708;2023-01-29T15:56:18;15.60;;;10.13;;
28551;SDS011;15752;49.560;8.708;2023-01-29T15:58:53;16.53;;;10.43;;
28551;SDS011;15752;49.560;8.708;2023-01-29T16:01:24;14.00;;;10.07;;
28551;SDS011;15752;49.560;8.708;2023-01-29T16:03:54;12.13;;;9.37;;
28551;SDS011;15752;49.560;8.708;2023-01-29T16:06:28;16.13;;;10.50;;
28551;SDS011;15752;49.560;8.708;2023-01-29T16:09:02;14.47;;;9.93;;
28551;SDS011;15752;49.560;8.708;2023-01-29T16:11:32;13.40;;;9.13;;
28551;SDS011;15752;49.560;8.708;2023-01-29T16:14:02;14.07;;;10.27;;
28551;SDS011;15752;49.560;8.708;2023-01-29T16:16:32;13.97;;;9.50;;
28551;SDS011;15752;49.560;8.708;2023-01-29T16:19:00;13.70;;;8.87;;
28551;SDS011;15752;49.560;8.708;2023-01-29T16:21:41;15.87;;;10.30;;
28551;SDS011;15752;49.560;8.708;2023-01-29T16:24:13;14.30;;;9.87;;
28551;SDS011;15752;49.560;8.708;2023-01-29T16:26:48;14.70;;;10.30;;
28551;SDS011;15752;49.560;8.708;2023-01-29T16:29:22;13.97;;;10.00;;
28551;SDS011;15752;49.560;8.708;2023-01-29T16:31:57;15.50;;;11.00;;
28551;SDS011;15752;49.560;8.708;2023-01-29T16:34:28;17.07;;;10.37;;
28551;SDS011;15752;49.560;8.708;2023-01-29T16:37:01;13.73;;;9.43;;
28551;SDS011;15752;49.560;8.708;2023-01-29T16:39:35;16.00;;;10.73;;
28551;SDS011;15752;49.560;8.708;2023-01-29T16:42:22;16.20;;;10.47;;
28551;SDS011;15752;49.560;8.708;2023-01-29T16:44:57;17.90;;;11.90;;
28551;SDS011;15752;49.560;8.708;2023-01-29T16:47:38;16.10;;;10.33;;
28551;SDS011;15752;49.560;8.708;2023-01-29T16:50:22;15.37;;;10.87;;
28551;SDS011;15752;49.560;8.708;2023-01-29T16:53:10;12.57;;;9.77;;
28551;SDS011;15752;49.560;8.708;2023-01-29T16:55:45;12.87;;;9.23;;
28551;SDS011;15752;49.560;8.708;2023-01-29T16:58:16;13.60;;;10.07;;
28551;SDS011;15752;49.560;8.708;2023-01-29T17:00:47;16.17;;;11.13;;
28551;SDS011;15752;49.560;8.708;2023-01-29T17:03:19;14.07;;;10.37;;
28551;SDS011;15752;49.560;8.708;2023-01-29T17:05:51;13.13;;;9.87;;
28551;SDS011;15752;49.560;8.708;2023-01-29T17:08:22;14.47;;;10.53;;
28551;SDS011;15752;49.560;8.708;2023-01-29T17:10:53;14.47;;;10.83;;
28551;SDS011;15752;49.560;8.708;2023-01-29T17:13:22;15.07;;;11.20;;
28551;SDS011;15752;49.560;8.708;2023-01-29T17:16:00;20.73;;;13.17;;
28551;SDS011;15752;49.560;8.708;2023-01-29T17:18:30;23.50;;;14.77;;
28551;SDS011;15752;49.560;8.708;2023-01-29T17:20:59;20.47;;;13.50;;
28551;SDS011;15752;49.560;8.708;2023-01-29T17:23:28;19.40;;;12.13;;
28551;SDS011;15752;49.560;8.708;2023-01-29T17:25:57;16.67;;;11.30;;
28551;SDS011;15752;49.560;8.708;2023-01-29T17:28:28;14.23;;;10.20;;
28551;SDS011;15752;49.560;8.708;2023-01-29T17:30:57;15.03;;;9.93;;
28551;SDS011;15752;49.560;8.708;2023-01-29T17:33:32;13.77;;;9.07;;
28551;SDS011;15752;49.560;8.708;2023-01-29T17:36:01;12.30;;;9.00;;
28551;SDS011;15752;49.560;8.708;2023-01-29T17:38:32;13.47;;;9.07;;
28551;SDS011;15752;49.560;8.708;2023-01-29T17:41:01;14.40;;;9.50;;
28551;SDS011;15752;49.560;8.708;2023-01-29T17:43:34;11.87;;;8.60;;
28551;SDS011;15752;49.560;8.708;2023-01-29T17:46:02;14.17;;;9.97;;
28551;SDS011;15752;49.560;8.708;2023-01-29T17:48:31;16.20;;;11.03;;
28551;SDS011;15752;49.560;8.708;2023-01-29T17:51:00;18.27;;;12.00;;
28551;SDS011;15752;49.560;8.708;2023-01-29T17:53:30;14.63;;;10.17;;
28551;SDS011;15752;49.560;8.708;2023-01-29T17:56:15;19.33;;;12.30;;
28551;SDS011;15752;49.560;8.708;2023-01-29T17:58:45;18.33;;;13.37;;
28551;SDS011;15752;49.560;8.708;2023-01-29T18:01:13;18.77;;;12.67;;
28551;SDS011;15752;49.560;8.708;2023-01-29T18:03:42;18.10;;;13.23;;
28551;SDS011;15752;49.560;8.708;2023-01-29T18:06:10;16.70;;;11.97;;
28551;SDS011;15752;49.560;8.708;2023-01-29T18:08:51;18.20;;;12.47;;
28551;SDS011;15752;49.560;8.708;2023-01-29T18:11:19;20.73;;;14.20;;
28551;SDS011;15752;49.560;8.708;2023-01-29T18:13:48;23.20;;;15.80;;
28551;SDS011;15752;49.560;8.708;2023-01-29T18:16:17;19.80;;;13.80;;
28551;SDS011;15752;49.560;8.708;2023-01-29T18:18:47;20.17;;;14.30;;
28551;SDS011;15752;49.560;8.708;2023-01-29T18:21:16;24.17;;;16.20;;
28551;SDS011;15752;49.560;8.708;2023-01-29T18:23:45;18.97;;;13.37;;